sensor_id;sensor_type;location;lat;lon;timestamp;P1;durP1;ratioP1;P2;durP2;ratioP2
6422;SDS011;3244;42.708;23.288;2023-05-29T00:00:39;6.68;;;5.03;;
6422;SDS011;3244;42.708;23.288;2023-05-29T00:03:07;5.55;;;5.10;;
6422;SDS011;3244;42.708;23.288;2023-05-29T00:05:35;6.28;;;5.30;;
6422;SDS011;3244;42.708;23.288;2023-05-29T00:08:02;5.95;;;5.45;;
6422;SDS011;3244;42.708;23.288;2023-05-29T00:10:29;6.47;;;5.15;;
6422;SDS011;3244;42.708;23.288;2023-05-29T00:12:57;6.22;;;5.47;;
6422;SDS011;3244;42.708;23.288;2023-05-29T00:15:25;5.40;;;5.00;;
6422;SDS011;3244;42.708;23.288;2023-05-29T00:17:52;4.95;;;4.43;;
6422;SDS011;3244;42.708;23.288;2023-05-29T00:20:19;5.15;;;4.75;;
6422;SDS011;3244;42.708;23.288;2023-05-29T00:22:47;5.00;;;4.60;;
6422;SDS011;3244;42.708;23.288;2023-05-29T00:25:14;11.18;;;6.10;;
6422;SDS011;3244;42.708;23.288;2023-05-29T00:27:41;6.53;;;5.30;;
6422;SDS011;3244;42.708;23.288;2023-05-29T00:30:08;5.43;;;4.95;;
6422;SDS011;3244;42.708;23.288;2023-05-29T00:32:35;5.85;;;5.45;;
6422;SDS011;3244;42.708;23.288;2023-05-29T00:35:02;9.07;;;5.13;;
6422;SDS011;3244;42.708;23.288;2023-05-29T00:37:28;5.65;;;5.13;;
6422;SDS011;3244;42.708;23.288;2023-05-29T00:39:57;5.63;;;5.13;;
6422;SDS011;3244;42.708;23.288;2023-05-29T00:42:23;6.95;;;6.45;;
6422;SDS011;3244;42.708;23.288;2023-05-29T00:44:50;6.00;;;5.47;;
6422;SDS011;3244;42.708;23.288;2023-05-29T00:47:16;6.15;;;5.57;;
6422;SDS011;3244;42.708;23.288;2023-05-29T00:49:43;6.28;;;5.63;;
6422;SDS011;3244;42.708;23.288;2023-05-29T00:52:10;6.20;;;5.70;;
6422;SDS011;3244;42.708;23.288;2023-05-29T00:54:38;5.95;;;5.38;;
6422;SDS011;3244;42.708;23.288;2023-05-29T00:57:06;5.85;;;5.35;;
6422;SDS011;3244;42.708;23.288;2023-05-29T00:59:33;7.13;;;4.95;;
6422;SDS011;3244;42.708;23.288;2023-05-29T01:02:01;6.18;;;5.07;;
6422;SDS011;3244;42.708;23.288;2023-05-29T01:04:28;5.50;;;5.00;;
6422;SDS011;3244;42.708;23.288;2023-05-29T01:06:58;7.05;;;5.38;;
6422;SDS011;3244;42.708;23.288;2023-05-29T01:09:27;5.43;;;4.95;;
6422;SDS011;3244;42.708;23.288;2023-05-29T01:11:57;6.10;;;5.05;;
6422;SDS011;3244;42.708;23.288;2023-05-29T01:14:36;6.68;;;5.78;;
6422;SDS011;3244;42.708;23.288;2023-05-29T01:17:11;5.03;;;4.72;;
6422;SDS011;3244;42.708;23.288;2023-05-29T01:20:01;6.13;;;5.20;;
6422;SDS011;3244;42.708;23.288;2023-05-29T01:22:38;7.68;;;5.03;;
6422;SDS011;3244;42.708;23.288;2023-05-29T01:25:17;9.02;;;4.90;;
6422;SDS011;3244;42.708;23.288;2023-05-29T01:27:49;5.50;;;5.10;;
6422;SDS011;3244;42.708;23.288;2023-05-29T01:30:17;5.53;;;5.13;;
6422;SDS011;3244;42.708;23.288;2023-05-29T01:32:45;5.53;;;5.03;;
6422;SDS011;3244;42.708;23.288;2023-05-29T01:35:12;6.40;;;4.95;;
6422;SDS011;3244;42.708;23.288;2023-05-29T01:37:39;5.35;;;4.97;;
6422;SDS011;3244;42.708;23.288;2023-05-29T01:40:06;6.18;;;5.10;;
6422;SDS011;3244;42.708;23.288;2023-05-29T01:42:34;9.13;;;4.75;;
6422;SDS011;3244;42.708;23.288;2023-05-29T01:45:02;5.70;;;5.20;;
6422;SDS011;3244;42.708;23.288;2023-05-29T01:47:31;6.15;;;5.13;;
6422;SDS011;3244;42.708;23.288;2023-05-29T01:49:58;6.00;;;5.32;;
6422;SDS011;3244;42.708;23.288;2023-05-29T01:52:26;5.32;;;4.60;;
6422;SDS011;3244;42.708;23.288;2023-05-29T01:54:53;5.22;;;4.57;;
6422;SDS011;3244;42.708;23.288;2023-05-29T01:57:20;7.50;;;5.47;;
6422;SDS011;3244;42.708;23.288;2023-05-29T01:59:47;5.57;;;5.15;;
6422;SDS011;3244;42.708;23.288;2023-05-29T02:02:15;5.43;;;4.80;;
6422;SDS011;3244;42.708;23.288;2023-05-29T02:04:42;11.98;;;5.53;;
6422;SDS011;3244;42.708;23.288;2023-05-29T02:07:08;6.05;;;5.30;;
6422;SDS011;3244;42.708;23.288;2023-05-29T02:09:37;6.68;;;5.03;;
6422;SDS011;3244;42.708;23.288;2023-05-29T02:12:04;8.23;;;5.97;;
6422;SDS011;3244;42.708;23.288;2023-05-29T02:14:32;6.32;;;5.93;;
6422;SDS011;3244;42.708;23.288;2023-05-29T02:16:58;5.88;;;5.13;;
6422;SDS011;3244;42.708;23.288;2023-05-29T02:19:27;6.00;;;5.10;;
6422;SDS011;3244;42.708;23.288;2023-05-29T02:21:55;7.38;;;4.75;;
6422;SDS011;3244;42.708;23.288;2023-05-29T02:24:22;6.80;;;6.13;;
6422;SDS011;3244;42.708;23.288;2023-05-29T02:26:48;6.20;;;5.70;;
6422;SDS011;3244;42.708;23.288;2023-05-29T02:29:16;6.93;;;6.05;;
6422;SDS011;3244;42.708;23.288;2023-05-29T02:31:43;5.43;;;5.13;;
6422;SDS011;3244;42.708;23.288;2023-05-29T02:34:10;5.95;;;5.45;;
6422;SDS011;3244;42.708;23.288;2023-05-29T02:36:38;7.38;;;5.30;;
6422;SDS011;3244;42.708;23.288;2023-05-29T02:39:05;6.03;;;5.53;;
6422;SDS011;3244;42.708;23.288;2023-05-29T02:41:31;6.55;;;6.05;;
6422;SDS011;3244;42.708;23.288;2023-05-29T02:43:58;6.15;;;5.75;;
6422;SDS011;3244;42.708;23.288;2023-05-29T02:46:25;7.65;;;5.97;;
6422;SDS011;3244;42.708;23.288;2023-05-29T02:48:51;7.43;;;5.82;;
6422;SDS011;3244;42.708;23.288;2023-05-29T02:51:18;6.85;;;6.10;;
6422;SDS011;3244;42.708;23.288;2023-05-29T02:53:46;7.13;;;5.65;;
6422;SDS011;3244;42.708;23.288;2023-05-29T02:56:13;10.38;;;7.20;;
6422;SDS011;3244;42.708;23.288;2023-05-29T02:58:40;6.55;;;5.95;;
6422;SDS011;3244;42.708;23.288;2023-05-29T03:01:07;12.82;;;6.32;;
6422;SDS011;3244;42.708;23.288;2023-05-29T03:03:34;8.98;;;5.97;;
6422;SDS011;3244;42.708;23.288;2023-05-29T03:06:01;13.57;;;7.07;;
6422;SDS011;3244;42.708;23.288;2023-05-29T03:08:28;9.75;;;6.70;;
6422;SDS011;3244;42.708;23.288;2023-05-29T03:10:56;6.50;;;5.85;;
6422;SDS011;3244;42.708;23.288;2023-05-29T03:13:23;6.82;;;5.97;;
6422;SDS011;3244;42.708;23.288;2023-05-29T03:15:49;9.68;;;6.97;;
6422;SDS011;3244;42.708;23.288;2023-05-29T03:18:21;7.82;;;7.13;;
6422;SDS011;3244;42.708;23.288;2023-05-29T03:20:48;7.18;;;6.50;;
6422;SDS011;3244;42.708;23.288;2023-05-29T03:23:15;18.52;;;8.27;;
6422;SDS011;3244;42.708;23.288;2023-05-29T03:25:41;11.77;;;6.88;;
6422;SDS011;3244;42.708;23.288;2023-05-29T03:28:09;10.20;;;7.38;;
6422;SDS011;3244;42.708;23.288;2023-05-29T03:30:36;8.27;;;7.47;;
6422;SDS011;3244;42.708;23.288;2023-05-29T03:33:02;7.90;;;7.03;;
6422;SDS011;3244;42.708;23.288;2023-05-29T03:35:30;6.95;;;6.30;;
6422;SDS011;3244;42.708;23.288;2023-05-29T03:37:56;8.45;;;7.10;;
6422;SDS011;3244;42.708;23.288;2023-05-29T03:40:23;7.75;;;7.00;;
6422;SDS011;3244;42.708;23.288;2023-05-29T03:42:50;15.68;;;8.35;;
6422;SDS011;3244;42.708;23.288;2023-05-29T03:45:18;8.13;;;7.30;;
6422;SDS011;3244;42.708;23.288;2023-05-29T03:47:45;7.90;;;7.13;;
6422;SDS011;3244;42.708;23.288;2023-05-29T03:50:12;10.38;;;6.88;;
6422;SDS011;3244;42.708;23.288;2023-05-29T03:52:40;12.25;;;6.80;;
6422;SDS011;3244;42.708;23.288;2023-05-29T03:55:08;11.48;;;6.47;;
6422;SDS011;3244;42.708;23.288;2023-05-29T03:57:38;16.38;;;6.97;;
6422;SDS011;3244;42.708;23.288;2023-05-29T04:00:06;9.13;;;7.22;;
6422;SDS011;3244;42.708;23.288;2023-05-29T04:02:36;10.70;;;7.75;;
6422;SDS011;3244;42.708;23.288;2023-05-29T04:05:04;12.05;;;8.20;;
6422;SDS011;3244;42.708;23.288;2023-05-29T04:07:31;12.88;;;7.05;;
6422;SDS011;3244;42.708;23.288;2023-05-29T04:09:58;15.65;;;8.55;;
6422;SDS011;3244;42.708;23.288;2023-05-29T04:12:24;26.38;;;16.85;;
6422;SDS011;3244;42.708;23.288;2023-05-29T04:14:51;19.48;;;14.55;;
6422;SDS011;3244;42.708;23.288;2023-05-29T04:17:18;18.15;;;10.50;;
6422;SDS011;3244;42.708;23.288;2023-05-29T04:19:46;32.47;;;20.85;;
6422;SDS011;3244;42.708;23.288;2023-05-29T04:22:12;18.75;;;11.32;;
6422;SDS011;3244;42.708;23.288;2023-05-29T04:24:39;14.43;;;9.48;;
6422;SDS011;3244;42.708;23.288;2023-05-29T04:27:07;14.88;;;8.73;;
6422;SDS011;3244;42.708;23.288;2023-05-29T04:29:38;11.30;;;8.10;;
6422;SDS011;3244;42.708;23.288;2023-05-29T04:32:05;18.15;;;8.68;;
6422;SDS011;3244;42.708;23.288;2023-05-29T04:34:33;17.55;;;8.60;;
6422;SDS011;3244;42.708;23.288;2023-05-29T04:37:01;12.65;;;8.88;;
6422;SDS011;3244;42.708;23.288;2023-05-29T04:39:28;17.70;;;12.60;;
6422;SDS011;3244;42.708;23.288;2023-05-29T04:41:55;26.80;;;18.98;;
6422;SDS011;3244;42.708;23.288;2023-05-29T04:44:23;18.30;;;12.60;;
6422;SDS011;3244;42.708;23.288;2023-05-29T04:46:51;12.18;;;8.90;;
6422;SDS011;3244;42.708;23.288;2023-05-29T04:49:18;8.10;;;7.32;;
6422;SDS011;3244;42.708;23.288;2023-05-29T04:51:45;29.42;;;19.58;;
6422;SDS011;3244;42.708;23.288;2023-05-29T04:54:13;41.60;;;27.23;;
6422;SDS011;3244;42.708;23.288;2023-05-29T04:56:41;24.50;;;14.98;;
6422;SDS011;3244;42.708;23.288;2023-05-29T04:59:08;14.25;;;11.48;;
6422;SDS011;3244;42.708;23.288;2023-05-29T05:01:35;10.02;;;7.35;;
6422;SDS011;3244;42.708;23.288;2023-05-29T05:04:01;11.57;;;7.50;;
6422;SDS011;3244;42.708;23.288;2023-05-29T05:06:28;8.20;;;6.65;;
6422;SDS011;3244;42.708;23.288;2023-05-29T05:08:55;8.02;;;7.38;;
6422;SDS011;3244;42.708;23.288;2023-05-29T05:11:23;9.90;;;7.30;;
6422;SDS011;3244;42.708;23.288;2023-05-29T05:13:50;8.80;;;7.03;;
6422;SDS011;3244;42.708;23.288;2023-05-29T05:16:16;7.32;;;6.47;;
6422;SDS011;3244;42.708;23.288;2023-05-29T05:18:43;9.05;;;6.88;;
6422;SDS011;3244;42.708;23.288;2023-05-29T05:21:10;13.18;;;7.15;;
6422;SDS011;3244;42.708;23.288;2023-05-29T05:23:37;12.55;;;7.38;;
6422;SDS011;3244;42.708;23.288;2023-05-29T05:26:04;13.73;;;8.23;;
6422;SDS011;3244;42.708;23.288;2023-05-29T05:28:32;17.40;;;7.55;;
6422;SDS011;3244;42.708;23.288;2023-05-29T05:30:59;14.10;;;6.80;;
6422;SDS011;3244;42.708;23.288;2023-05-29T05:33:26;10.23;;;6.93;;
6422;SDS011;3244;42.708;23.288;2023-05-29T05:35:53;10.30;;;8.57;;
6422;SDS011;3244;42.708;23.288;2023-05-29T05:38:20;14.02;;;10.63;;
6422;SDS011;3244;42.708;23.288;2023-05-29T05:40:47;12.70;;;11.20;;
6422;SDS011;3244;42.708;23.288;2023-05-29T05:43:13;14.95;;;10.15;;
6422;SDS011;3244;42.708;23.288;2023-05-29T05:45:41;13.45;;;10.52;;
6422;SDS011;3244;42.708;23.288;2023-05-29T05:48:08;16.98;;;11.32;;
6422;SDS011;3244;42.708;23.288;2023-05-29T05:50:35;19.77;;;10.27;;
6422;SDS011;3244;42.708;23.288;2023-05-29T05:53:01;21.05;;;11.77;;
6422;SDS011;3244;42.708;23.288;2023-05-29T05:55:28;27.02;;;12.57;;
6422;SDS011;3244;42.708;23.288;2023-05-29T05:57:55;37.33;;;15.65;;
6422;SDS011;3244;42.708;23.288;2023-05-29T06:00:22;27.45;;;12.07;;
6422;SDS011;3244;42.708;23.288;2023-05-29T06:02:50;12.45;;;8.18;;
6422;SDS011;3244;42.708;23.288;2023-05-29T06:05:17;25.67;;;13.30;;
6422;SDS011;3244;42.708;23.288;2023-05-29T06:07:44;19.27;;;10.55;;
6422;SDS011;3244;42.708;23.288;2023-05-29T06:10:10;25.63;;;12.02;;
6422;SDS011;3244;42.708;23.288;2023-05-29T06:12:38;10.50;;;6.88;;
6422;SDS011;3244;42.708;23.288;2023-05-29T06:15:05;16.02;;;7.75;;
6422;SDS011;3244;42.708;23.288;2023-05-29T06:17:32;17.58;;;10.38;;
6422;SDS011;3244;42.708;23.288;2023-05-29T06:20:01;6.50;;;5.43;;
6422;SDS011;3244;42.708;23.288;2023-05-29T06:22:29;7.18;;;5.07;;
6422;SDS011;3244;42.708;23.288;2023-05-29T06:24:56;6.63;;;3.63;;
6422;SDS011;3244;42.708;23.288;2023-05-29T06:27:22;8.70;;;4.38;;
6422;SDS011;3244;42.708;23.288;2023-05-29T06:29:50;8.18;;;4.22;;
6422;SDS011;3244;42.708;23.288;2023-05-29T06:32:17;6.05;;;4.32;;
6422;SDS011;3244;42.708;23.288;2023-05-29T06:34:44;4.82;;;4.32;;
6422;SDS011;3244;42.708;23.288;2023-05-29T06:37:12;12.50;;;9.00;;
6422;SDS011;3244;42.708;23.288;2023-05-29T06:39:38;6.57;;;4.30;;
6422;SDS011;3244;42.708;23.288;2023-05-29T06:42:07;4.25;;;3.85;;
6422;SDS011;3244;42.708;23.288;2023-05-29T06:44:33;4.38;;;3.75;;
6422;SDS011;3244;42.708;23.288;2023-05-29T06:47:00;4.13;;;3.83;;
6422;SDS011;3244;42.708;23.288;2023-05-29T06:49:27;3.47;;;3.28;;
6422;SDS011;3244;42.708;23.288;2023-05-29T06:51:54;3.95;;;3.65;;
6422;SDS011;3244;42.708;23.288;2023-05-29T06:54:22;4.30;;;4.00;;
6422;SDS011;3244;42.708;23.288;2023-05-29T06:56:48;7.55;;;6.65;;
6422;SDS011;3244;42.708;23.288;2023-05-29T06:59:15;4.07;;;3.63;;
6422;SDS011;3244;42.708;23.288;2023-05-29T07:01:42;5.18;;;4.68;;
6422;SDS011;3244;42.708;23.288;2023-05-29T07:04:09;6.57;;;5.47;;
6422;SDS011;3244;42.708;23.288;2023-05-29T07:06:37;3.83;;;2.60;;
6422;SDS011;3244;42.708;23.288;2023-05-29T07:09:04;3.72;;;3.42;;
6422;SDS011;3244;42.708;23.288;2023-05-29T07:11:32;5.30;;;3.60;;
6422;SDS011;3244;42.708;23.288;2023-05-29T07:13:58;3.63;;;3.08;;
6422;SDS011;3244;42.708;23.288;2023-05-29T07:16:25;2.55;;;2.35;;
6422;SDS011;3244;42.708;23.288;2023-05-29T07:18:52;2.63;;;2.53;;
6422;SDS011;3244;42.708;23.288;2023-05-29T07:21:18;3.60;;;3.25;;
6422;SDS011;3244;42.708;23.288;2023-05-29T07:23:45;3.22;;;2.85;;
6422;SDS011;3244;42.708;23.288;2023-05-29T07:26:12;2.60;;;2.50;;
6422;SDS011;3244;42.708;23.288;2023-05-29T07:28:40;2.97;;;2.78;;
6422;SDS011;3244;42.708;23.288;2023-05-29T07:31:06;2.92;;;2.72;;
6422;SDS011;3244;42.708;23.288;2023-05-29T07:33:33;2.50;;;2.40;;
6422;SDS011;3244;42.708;23.288;2023-05-29T07:36:00;2.50;;;2.40;;
6422;SDS011;3244;42.708;23.288;2023-05-29T07:38:27;3.42;;;3.13;;
6422;SDS011;3244;42.708;23.288;2023-05-29T07:40:53;3.90;;;3.30;;
6422;SDS011;3244;42.708;23.288;2023-05-29T07:43:20;3.38;;;3.10;;
6422;SDS011;3244;42.708;23.288;2023-05-29T07:45:48;2.78;;;2.60;;
6422;SDS011;3244;42.708;23.288;2023-05-29T07:48:15;2.63;;;2.53;;
6422;SDS011;3244;42.708;23.288;2023-05-29T07:50:41;2.47;;;2.38;;
6422;SDS011;3244;42.708;23.288;2023-05-29T07:53:08;6.35;;;2.33;;
6422;SDS011;3244;42.708;23.288;2023-05-29T07:55:35;3.95;;;2.58;;
6422;SDS011;3244;42.708;23.288;2023-05-29T07:58:01;2.60;;;2.40;;
6422;SDS011;3244;42.708;23.288;2023-05-29T08:00:28;3.85;;;2.30;;
6422;SDS011;3244;42.708;23.288;2023-05-29T08:02:56;2.58;;;1.80;;
6422;SDS011;3244;42.708;23.288;2023-05-29T08:05:23;6.05;;;2.70;;
6422;SDS011;3244;42.708;23.288;2023-05-29T08:07:50;2.00;;;1.90;;
6422;SDS011;3244;42.708;23.288;2023-05-29T08:10:17;2.05;;;1.95;;
6422;SDS011;3244;42.708;23.288;2023-05-29T08:12:43;2.35;;;1.90;;
6422;SDS011;3244;42.708;23.288;2023-05-29T08:15:10;2.35;;;2.20;;
6422;SDS011;3244;42.708;23.288;2023-05-29T08:17:38;5.93;;;2.92;;
6422;SDS011;3244;42.708;23.288;2023-05-29T08:20:06;2.50;;;2.30;;
6422;SDS011;3244;42.708;23.288;2023-05-29T08:22:35;2.88;;;2.22;;
6422;SDS011;3244;42.708;23.288;2023-05-29T08:25:02;3.83;;;2.22;;
6422;SDS011;3244;42.708;23.288;2023-05-29T08:27:29;6.65;;;3.05;;
6422;SDS011;3244;42.708;23.288;2023-05-29T08:29:55;2.53;;;2.42;;
6422;SDS011;3244;42.708;23.288;2023-05-29T08:32:22;2.95;;;2.20;;
6422;SDS011;3244;42.708;23.288;2023-05-29T08:34:49;3.08;;;2.40;;
6422;SDS011;3244;42.708;23.288;2023-05-29T08:37:17;2.40;;;2.20;;
6422;SDS011;3244;42.708;23.288;2023-05-29T08:39:44;2.30;;;2.20;;
6422;SDS011;3244;42.708;23.288;2023-05-29T08:42:12;2.40;;;2.10;;
6422;SDS011;3244;42.708;23.288;2023-05-29T08:44:44;2.60;;;2.40;;
6422;SDS011;3244;42.708;23.288;2023-05-29T08:47:14;2.85;;;2.50;;
6422;SDS011;3244;42.708;23.288;2023-05-29T08:49:45;2.78;;;2.10;;
6422;SDS011;3244;42.708;23.288;2023-05-29T08:52:22;2.47;;;2.20;;
6422;SDS011;3244;42.708;23.288;2023-05-29T08:54:49;3.95;;;2.28;;
6422;SDS011;3244;42.708;23.288;2023-05-29T08:57:16;3.33;;;2.35;;
6422;SDS011;3244;42.708;23.288;2023-05-29T08:59:43;2.70;;;2.50;;
6422;SDS011;3244;42.708;23.288;2023-05-29T09:02:10;1.98;;;1.85;;
6422;SDS011;3244;42.708;23.288;2023-05-29T09:04:37;4.78;;;2.17;;
6422;SDS011;3244;42.708;23.288;2023-05-29T09:07:04;2.63;;;2.53;;
6422;SDS011;3244;42.708;23.288;2023-05-29T09:09:35;6.68;;;2.60;;
6422;SDS011;3244;42.708;23.288;2023-05-29T09:12:03;3.10;;;2.15;;
6422;SDS011;3244;42.708;23.288;2023-05-29T09:14:33;2.60;;;2.40;;
6422;SDS011;3244;42.708;23.288;2023-05-29T09:17:01;2.35;;;2.25;;
6422;SDS011;3244;42.708;23.288;2023-05-29T09:19:28;7.68;;;7.15;;
6422;SDS011;3244;42.708;23.288;2023-05-29T09:22:02;2.60;;;2.50;;
6422;SDS011;3244;42.708;23.288;2023-05-29T09:24:30;2.88;;;2.40;;
6422;SDS011;3244;42.708;23.288;2023-05-29T09:27:00;2.45;;;2.35;;
6422;SDS011;3244;42.708;23.288;2023-05-29T09:29:30;3.55;;;2.65;;
6422;SDS011;3244;42.708;23.288;2023-05-29T09:31:57;11.02;;;10.02;;
6422;SDS011;3244;42.708;23.288;2023-05-29T09:34:24;3.30;;;3.10;;
6422;SDS011;3244;42.708;23.288;2023-05-29T09:36:52;5.18;;;4.68;;
6422;SDS011;3244;42.708;23.288;2023-05-29T09:39:21;3.08;;;2.88;;
6422;SDS011;3244;42.708;23.288;2023-05-29T09:41:48;2.88;;;2.67;;
6422;SDS011;3244;42.708;23.288;2023-05-29T09:44:16;2.40;;;2.30;;
6422;SDS011;3244;42.708;23.288;2023-05-29T09:46:43;3.50;;;3.20;;
6422;SDS011;3244;42.708;23.288;2023-05-29T09:49:11;3.92;;;3.72;;
6422;SDS011;3244;42.708;23.288;2023-05-29T09:51:39;3.20;;;3.00;;
6422;SDS011;3244;42.708;23.288;2023-05-29T09:54:14;3.25;;;3.00;;
6422;SDS011;3244;42.708;23.288;2023-05-29T09:56:41;3.97;;;3.25;;
6422;SDS011;3244;42.708;23.288;2023-05-29T09:59:10;3.25;;;2.58;;
6422;SDS011;3244;42.708;23.288;2023-05-29T10:01:39;3.03;;;2.55;;
6422;SDS011;3244;42.708;23.288;2023-05-29T10:04:09;2.83;;;2.67;;
6422;SDS011;3244;42.708;23.288;2023-05-29T10:06:36;3.10;;;2.83;;
6422;SDS011;3244;42.708;23.288;2023-05-29T10:09:05;3.10;;;2.97;;
6422;SDS011;3244;42.708;23.288;2023-05-29T10:11:35;3.92;;;3.63;;
6422;SDS011;3244;42.708;23.288;2023-05-29T10:14:06;5.53;;;5.13;;
6422;SDS011;3244;42.708;23.288;2023-05-29T10:16:37;4.32;;;3.92;;
6422;SDS011;3244;42.708;23.288;2023-05-29T10:19:09;6.68;;;4.90;;
6422;SDS011;3244;42.708;23.288;2023-05-29T10:21:40;8.57;;;7.82;;
6422;SDS011;3244;42.708;23.288;2023-05-29T10:24:07;3.47;;;2.80;;
6422;SDS011;3244;42.708;23.288;2023-05-29T10:26:38;5.65;;;3.13;;
6422;SDS011;3244;42.708;23.288;2023-05-29T10:29:08;5.97;;;3.47;;
6422;SDS011;3244;42.708;23.288;2023-05-29T10:31:46;5.53;;;2.83;;
6422;SDS011;3244;42.708;23.288;2023-05-29T10:34:20;2.88;;;2.67;;
6422;SDS011;3244;42.708;23.288;2023-05-29T10:36:56;5.63;;;2.70;;
6422;SDS011;3244;42.708;23.288;2023-05-29T10:39:30;3.83;;;2.67;;
6422;SDS011;3244;42.708;23.288;2023-05-29T10:41:58;4.80;;;3.30;;
6422;SDS011;3244;42.708;23.288;2023-05-29T10:47:14;3.97;;;3.67;;
6422;SDS011;3244;42.708;23.288;2023-05-29T10:49:50;2.63;;;2.42;;
6422;SDS011;3244;42.708;23.288;2023-05-29T10:52:18;2.65;;;2.45;;
6422;SDS011;3244;42.708;23.288;2023-05-29T10:54:52;3.03;;;2.83;;
6422;SDS011;3244;42.708;23.288;2023-05-29T10:57:23;3.10;;;2.88;;
6422;SDS011;3244;42.708;23.288;2023-05-29T11:02:40;6.88;;;3.25;;
6422;SDS011;3244;42.708;23.288;2023-05-29T11:05:20;4.25;;;3.95;;
6422;SDS011;3244;42.708;23.288;2023-05-29T11:07:50;2.80;;;2.60;;
6422;SDS011;3244;42.708;23.288;2023-05-29T11:13:26;3.03;;;2.72;;
6422;SDS011;3244;42.708;23.288;2023-05-29T11:16:13;7.43;;;2.70;;
6422;SDS011;3244;42.708;23.288;2023-05-29T11:18:42;2.80;;;2.70;;
6422;SDS011;3244;42.708;23.288;2023-05-29T11:23:57;3.70;;;2.72;;
6422;SDS011;3244;42.708;23.288;2023-05-29T11:26:26;7.82;;;3.20;;
6422;SDS011;3244;42.708;23.288;2023-05-29T11:28:53;4.20;;;3.10;;
6422;SDS011;3244;42.708;23.288;2023-05-29T11:31:23;3.03;;;2.83;;
6422;SDS011;3244;42.708;23.288;2023-05-29T11:33:52;3.83;;;3.15;;
6422;SDS011;3244;42.708;23.288;2023-05-29T11:36:22;3.42;;;2.92;;
6422;SDS011;3244;42.708;23.288;2023-05-29T11:38:48;3.30;;;3.10;;
6422;SDS011;3244;42.708;23.288;2023-05-29T11:41:18;3.63;;;2.90;;
6422;SDS011;3244;42.708;23.288;2023-05-29T11:43:55;3.88;;;3.15;;
6422;SDS011;3244;42.708;23.288;2023-05-29T11:46:22;2.67;;;2.47;;
6422;SDS011;3244;42.708;23.288;2023-05-29T11:48:52;6.63;;;2.95;;
6422;SDS011;3244;42.708;23.288;2023-05-29T11:51:19;6.85;;;6.18;;
6422;SDS011;3244;42.708;23.288;2023-05-29T11:53:46;3.97;;;3.63;;
6422;SDS011;3244;42.708;23.288;2023-05-29T11:56:14;3.85;;;3.65;;
6422;SDS011;3244;42.708;23.288;2023-05-29T11:58:41;3.20;;;3.00;;
6422;SDS011;3244;42.708;23.288;2023-05-29T12:01:08;5.57;;;3.60;;
6422;SDS011;3244;42.708;23.288;2023-05-29T12:03:39;6.20;;;3.28;;
6422;SDS011;3244;42.708;23.288;2023-05-29T12:06:08;4.50;;;3.17;;
6422;SDS011;3244;42.708;23.288;2023-05-29T12:08:35;11.02;;;7.78;;
6422;SDS011;3244;42.708;23.288;2023-05-29T12:11:03;3.40;;;3.10;;
6422;SDS011;3244;42.708;23.288;2023-05-29T12:13:30;3.72;;;3.17;;
6422;SDS011;3244;42.708;23.288;2023-05-29T12:15:58;5.53;;;2.80;;
6422;SDS011;3244;42.708;23.288;2023-05-29T12:18:27;6.28;;;3.67;;
6422;SDS011;3244;42.708;23.288;2023-05-29T12:20:57;6.85;;;4.07;;
6422;SDS011;3244;42.708;23.288;2023-05-29T12:23:26;5.82;;;4.90;;
6422;SDS011;3244;42.708;23.288;2023-05-29T12:25:54;5.40;;;4.63;;
6422;SDS011;3244;42.708;23.288;2023-05-29T12:28:20;13.50;;;4.75;;
6422;SDS011;3244;42.708;23.288;2023-05-29T12:30:48;4.60;;;3.65;;
6422;SDS011;3244;42.708;23.288;2023-05-29T12:33:24;4.85;;;4.43;;
6422;SDS011;3244;42.708;23.288;2023-05-29T12:35:53;7.10;;;3.95;;
6422;SDS011;3244;42.708;23.288;2023-05-29T12:38:20;6.82;;;4.18;;
6422;SDS011;3244;42.708;23.288;2023-05-29T12:40:50;7.28;;;3.75;;
6422;SDS011;3244;42.708;23.288;2023-05-29T12:43:18;5.25;;;3.63;;
6422;SDS011;3244;42.708;23.288;2023-05-29T12:45:44;3.20;;;3.00;;
6422;SDS011;3244;42.708;23.288;2023-05-29T12:48:12;3.53;;;3.10;;
6422;SDS011;3244;42.708;23.288;2023-05-29T12:50:39;3.22;;;2.28;;
6422;SDS011;3244;42.708;23.288;2023-05-29T12:53:07;2.80;;;2.60;;
6422;SDS011;3244;42.708;23.288;2023-05-29T12:55:34;2.92;;;2.67;;
6422;SDS011;3244;42.708;23.288;2023-05-29T12:58:05;3.83;;;2.70;;
6422;SDS011;3244;42.708;23.288;2023-05-29T13:00:33;8.07;;;3.60;;
6422;SDS011;3244;42.708;23.288;2023-05-29T13:03:00;3.45;;;3.20;;
6422;SDS011;3244;42.708;23.288;2023-05-29T13:05:27;5.28;;;3.42;;
6422;SDS011;3244;42.708;23.288;2023-05-29T13:07:54;4.10;;;3.75;;
6422;SDS011;3244;42.708;23.288;2023-05-29T13:10:21;3.75;;;3.55;;
6422;SDS011;3244;42.708;23.288;2023-05-29T13:12:48;7.82;;;3.60;;
6422;SDS011;3244;42.708;23.288;2023-05-29T13:15:20;4.68;;;3.40;;
6422;SDS011;3244;42.708;23.288;2023-05-29T13:17:48;4.00;;;3.45;;
6422;SDS011;3244;42.708;23.288;2023-05-29T13:20:15;3.78;;;3.35;;
6422;SDS011;3244;42.708;23.288;2023-05-29T13:22:42;3.47;;;3.20;;
6422;SDS011;3244;42.708;23.288;2023-05-29T13:25:12;3.53;;;3.25;;
6422;SDS011;3244;42.708;23.288;2023-05-29T13:27:41;3.80;;;3.38;;
6422;SDS011;3244;42.708;23.288;2023-05-29T13:30:09;3.58;;;3.38;;
6422;SDS011;3244;42.708;23.288;2023-05-29T13:32:38;5.97;;;3.00;;
6422;SDS011;3244;42.708;23.288;2023-05-29T13:35:05;3.60;;;2.55;;
6422;SDS011;3244;42.708;23.288;2023-05-29T13:37:32;2.40;;;2.22;;
6422;SDS011;3244;42.708;23.288;2023-05-29T13:39:59;2.25;;;1.67;;
6422;SDS011;3244;42.708;23.288;2023-05-29T13:42:25;2.70;;;1.17;;
6422;SDS011;3244;42.708;23.288;2023-05-29T13:44:52;5.05;;;1.65;;
6422;SDS011;3244;42.708;23.288;2023-05-29T13:47:19;4.78;;;1.45;;
6422;SDS011;3244;42.708;23.288;2023-05-29T13:49:47;2.08;;;1.35;;
6422;SDS011;3244;42.708;23.288;2023-05-29T13:52:14;1.05;;;1.05;;
6422;SDS011;3244;42.708;23.288;2023-05-29T13:54:41;2.70;;;1.73;;
6422;SDS011;3244;42.708;23.288;2023-05-29T13:57:08;1.60;;;1.50;;
6422;SDS011;3244;42.708;23.288;2023-05-29T13:59:35;1.80;;;1.48;;
6422;SDS011;3244;42.708;23.288;2023-05-29T14:02:01;1.98;;;1.88;;
6422;SDS011;3244;42.708;23.288;2023-05-29T14:04:29;2.45;;;1.50;;
6422;SDS011;3244;42.708;23.288;2023-05-29T14:06:57;4.07;;;1.17;;
6422;SDS011;3244;42.708;23.288;2023-05-29T14:09:24;1.33;;;1.30;;
6422;SDS011;3244;42.708;23.288;2023-05-29T14:11:52;7.45;;;1.33;;
6422;SDS011;3244;42.708;23.288;2023-05-29T14:14:19;2.25;;;1.23;;
6422;SDS011;3244;42.708;23.288;2023-05-29T14:16:47;2.22;;;1.30;;
6422;SDS011;3244;42.708;23.288;2023-05-29T14:19:14;1.15;;;1.15;;
6422;SDS011;3244;42.708;23.288;2023-05-29T14:21:41;3.13;;;1.65;;
6422;SDS011;3244;42.708;23.288;2023-05-29T14:24:09;1.95;;;1.60;;
6422;SDS011;3244;42.708;23.288;2023-05-29T14:26:35;1.95;;;1.17;;
6422;SDS011;3244;42.708;23.288;2023-05-29T14:29:02;1.30;;;1.20;;
6422;SDS011;3244;42.708;23.288;2023-05-29T14:31:29;2.17;;;1.45;;
6422;SDS011;3244;42.708;23.288;2023-05-29T14:33:56;4.63;;;1.60;;
6422;SDS011;3244;42.708;23.288;2023-05-29T14:36:22;1.70;;;1.52;;
6422;SDS011;3244;42.708;23.288;2023-05-29T14:38:49;1.65;;;1.50;;
6422;SDS011;3244;42.708;23.288;2023-05-29T14:41:17;1.45;;;1.10;;
6422;SDS011;3244;42.708;23.288;2023-05-29T14:43:44;2.45;;;1.38;;
6422;SDS011;3244;42.708;23.288;2023-05-29T14:46:10;1.70;;;1.40;;
6422;SDS011;3244;42.708;23.288;2023-05-29T14:48:38;1.45;;;1.45;;
6422;SDS011;3244;42.708;23.288;2023-05-29T14:51:05;2.38;;;1.75;;
6422;SDS011;3244;42.708;23.288;2023-05-29T14:53:32;1.80;;;1.40;;
6422;SDS011;3244;42.708;23.288;2023-05-29T14:55:58;2.13;;;2.03;;
6422;SDS011;3244;42.708;23.288;2023-05-29T14:58:27;2.42;;;2.22;;
6422;SDS011;3244;42.708;23.288;2023-05-29T15:00:54;4.00;;;1.60;;
6422;SDS011;3244;42.708;23.288;2023-05-29T15:03:20;1.90;;;1.80;;
6422;SDS011;3244;42.708;23.288;2023-05-29T15:05:51;1.83;;;1.73;;
6422;SDS011;3244;42.708;23.288;2023-05-29T15:08:18;2.00;;;1.90;;
6422;SDS011;3244;42.708;23.288;2023-05-29T15:10:44;3.55;;;2.15;;
6422;SDS011;3244;42.708;23.288;2023-05-29T15:13:11;2.03;;;1.83;;